^^
Station Historical Data
Daily Summary for April 15, 2017 Units:  English    Metric   Both
« Previous Day
Next Day »
Daily Weekly Monthly Yearly Custom
  High: Low: Average:
Temperature: 65.0 °F 44.1 °F 56.4 °F
Dew Point: 53.3 °F 37.1 °F 44.3 °F
Humidity: 80 % 49 % 65 %
Wind Speed: 10.1 mph 0.0 mph 1.1 mph
Wind Gust: 12.7 mph - -
Wind:- - South
Pressure: 30.39 in 30.10 in -
Precipitation: 0.00 in    
Historical Graphs
 
 
Tabular Data for April 15, 2017
Time Temperature Dew Point Pressure Wind Wind Speed Wind Gust Humidity Rainfall Rate (Hourly) solar Conditions
00:03 53.9 °F 40.3 °F 30.38 in Calm     60 % 0.00 in 0.0 W/m2 FEW
00:13 54.0 °F 40.0 °F 30.38 in SSW 0.4 mph   59 % 0.00 in 0.0 W/m2 FEW
00:18 53.6 °F 40.0 °F 30.38 in Calm     60 % 0.00 in 0.0 W/m2 FEW
00:23 53.5 °F 39.9 °F 30.38 in Calm     60 % 0.00 in 0.0 W/m2 FEW
00:28 53.4 °F 39.9 °F 30.39 in SSW 0.3 mph 6.9 mph 60 % 0.00 in 0.0 W/m2 FEW
00:33 53.4 °F 39.9 °F 30.38 in SSW 2.0 mph 5.8 mph 60 % 0.00 in 0.0 W/m2 FEW
00:38 53.4 °F 39.4 °F 30.39 in SSE 0.6 mph 3.5 mph 59 % 0.00 in 0.0 W/m2 FEW
00:43 53.3 °F 39.3 °F 30.38 in South 0.2 mph 2.3 mph 59 % 0.00 in 0.0 W/m2 FEW
00:48 53.0 °F 39.0 °F 30.38 in South 2.8 mph 3.5 mph 59 % 0.00 in 0.0 W/m2 FEW
00:53 53.1 °F 39.1 °F 30.38 in Calm   3.5 mph 59 % 0.00 in 0.0 W/m2 FEW
00:58 53.0 °F 39.0 °F 30.38 in SSW 1.7 mph 4.6 mph 59 % 0.00 in 0.0 W/m2 FEW
01:03 52.9 °F 39.0 °F 30.38 in SSW 0.9 mph 3.0 mph 59 % 0.00 in 0.0 W/m2 FEW
01:08 52.8 °F 38.9 °F 30.38 in South 2.1 mph 3.5 mph 59 % 0.00 in 0.0 W/m2 FEW
01:14 52.8 °F 38.9 °F 30.38 in South 4.9 mph 6.9 mph 59 % 0.00 in 0.0 W/m2 FEW
01:19 52.7 °F 38.8 °F 30.38 in SSW 0.8 mph 5.0 mph 59 % 0.00 in 0.0 W/m2 FEW
01:24 52.6 °F 39.1 °F 30.38 in SSE 0.1 mph 2.3 mph 60 % 0.00 in 0.0 W/m2 FEW
01:29 52.5 °F 39.0 °F 30.38 in Calm     60 % 0.00 in 0.0 W/m2 FEW
01:34 52.2 °F 38.7 °F 30.38 in Calm     60 % 0.00 in 0.0 W/m2 FEW
01:39 51.8 °F 38.8 °F 30.39 in Calm     61 % 0.00 in 0.0 W/m2 FEW
01:44 51.6 °F 38.6 °F 30.39 in Calm     61 % 0.00 in 0.0 W/m2 FEW
01:49 51.1 °F 38.5 °F 30.39 in Calm     62 % 0.00 in 0.0 W/m2 FEW
01:54 50.7 °F 38.6 °F 30.38 in Calm     63 % 0.00 in 0.0 W/m2 FEW
01:59 50.4 °F 38.7 °F 30.38 in Calm     64 % 0.00 in 0.0 W/m2 FEW
02:04 50.4 °F 38.7 °F 30.38 in Calm     64 % 0.00 in 0.0 W/m2 FEW
02:09 50.4 °F 38.7 °F 30.38 in Calm     64 % 0.00 in 0.0 W/m2 FEW
02:14 50.3 °F 38.6 °F 30.38 in Calm     64 % 0.00 in 0.0 W/m2 FEW
02:19 50.4 °F 38.7 °F 30.38 in SSW 0.9 mph 3.5 mph 64 % 0.00 in 0.0 W/m2 FEW
02:24 50.7 °F 38.6 °F 30.38 in Calm     63 % 0.00 in 0.0 W/m2 FEW
02:29 50.4 °F 38.3 °F 30.38 in Calm     63 % 0.00 in 0.0 W/m2 FEW
02:34 50.1 °F 38.4 °F 30.38 in Calm     64 % 0.00 in 0.0 W/m2 FEW
02:39 49.5 °F 37.8 °F 30.38 in Calm     64 % 0.00 in 0.0 W/m2 FEW
02:44 49.5 °F 38.6 °F 30.38 in Calm     66 % 0.00 in 0.0 W/m2 FEW
02:49 49.9 °F 38.2 °F 30.38 in Calm     64 % 0.00 in 0.0 W/m2 FEW
02:54 50.0 °F 38.3 °F 30.38 in Calm     64 % 0.00 in 0.0 W/m2 FEW
02:59 49.5 °F 37.8 °F 30.38 in Calm     64 % 0.00 in 0.0 W/m2 FEW
03:04 49.2 °F 37.9 °F 30.38 in Calm     65 % 0.00 in 0.0 W/m2 FEW
03:09 49.1 °F 38.2 °F 30.38 in Calm     66 % 0.00 in 0.0 W/m2 FEW
03:14 49.3 °F 38.4 °F 30.38 in Calm     66 % 0.00 in 0.0 W/m2 FEW
03:19 49.6 °F 38.7 °F 30.38 in Calm     66 % 0.00 in 0.0 W/m2 FEW
03:24 49.5 °F 38.2 °F 30.38 in Calm     65 % 0.00 in 0.0 W/m2 FEW
03:29 49.3 °F 38.4 °F 30.38 in SSW 0.2 mph   66 % 0.00 in 0.0 W/m2 FEW
03:34 49.4 °F 38.5 °F 30.38 in Calm     66 % 0.00 in 0.0 W/m2 FEW
03:39 49.3 °F 38.4 °F 30.38 in Calm   1.2 mph 66 % 0.00 in 0.0 W/m2 FEW
03:44 49.3 °F 38.8 °F 30.37 in Calm     67 % 0.00 in 0.0 W/m2 FEW
03:49 49.4 °F 38.9 °F 30.37 in Calm     67 % 0.00 in 0.0 W/m2 FEW
03:54 49.4 °F 38.9 °F 30.37 in Calm     67 % 0.00 in 0.0 W/m2 FEW
03:59 49.3 °F 38.8 °F 30.37 in Calm     67 % 0.00 in 0.0 W/m2 FEW
04:04 49.3 °F 39.2 °F 30.37 in Calm     68 % 0.00 in 0.0 W/m2 FEW
04:09 49.2 °F 39.1 °F 30.37 in Calm     68 % 0.00 in 0.0 W/m2 FEW
04:14 49.0 °F 38.9 °F 30.37 in Calm     68 % 0.00 in 0.0 W/m2 FEW
04:19 48.9 °F 39.2 °F 30.37 in Calm     69 % 0.00 in 0.0 W/m2 FEW
04:24 48.7 °F 39.0 °F 30.37 in Calm     69 % 0.00 in 0.0 W/m2 FEW
04:29 48.7 °F 39.0 °F 30.37 in Calm     69 % 0.00 in 0.0 W/m2 FEW
04:34 48.6 °F 38.9 °F 30.37 in Calm     69 % 0.00 in 0.0 W/m2 FEW
04:39 48.3 °F 38.6 °F 30.37 in Calm     69 % 0.00 in 0.0 W/m2 FEW
04:44 48.7 °F 39.0 °F 30.37 in Calm     69 % 0.00 in 0.0 W/m2 FEW
04:49 48.7 °F 39.0 °F 30.37 in Calm     69 % 0.00 in 0.0 W/m2 FEW
04:54 48.8 °F 39.1 °F 30.37 in Calm     69 % 0.00 in 0.0 W/m2 FEW
04:59 48.8 °F 39.1 °F 30.37 in Calm     69 % 0.00 in 0.0 W/m2 FEW
05:04 48.4 °F 38.7 °F 30.37 in Calm     69 % 0.00 in 0.0 W/m2 FEW
05:09 47.6 °F 38.3 °F 30.37 in Calm     70 % 0.00 in 0.0 W/m2 FEW
05:14 46.8 °F 37.5 °F 30.37 in Calm   1.2 mph 70 % 0.00 in 0.0 W/m2 FEW
05:19 46.2 °F 37.3 °F 30.37 in Calm   1.2 mph 71 % 0.00 in 0.0 W/m2 FEW
05:24 45.9 °F 37.4 °F 30.37 in Calm     72 % 0.00 in 0.0 W/m2 FEW
05:29 45.7 °F 37.2 °F 30.37 in Calm     72 % 0.00 in 0.0 W/m2 FEW
05:34 45.6 °F 37.4 °F 30.37 in Calm     73 % 0.00 in 0.0 W/m2 FEW
05:39 45.4 °F 37.2 °F 30.37 in Calm     73 % 0.00 in 0.0 W/m2 FEW
05:44 45.5 °F 37.7 °F 30.37 in Calm     74 % 0.00 in 0.0 W/m2 FEW
05:49 45.1 °F 37.3 °F 30.37 in Calm     74 % 0.00 in 0.0 W/m2 FEW
05:54 45.0 °F 37.6 °F 30.37 in Calm     75 % 0.00 in 0.0 W/m2 FEW
05:59 44.9 °F 37.5 °F 30.37 in Calm     75 % 0.00 in 0.0 W/m2 FEW
06:04 44.8 °F 37.4 °F 30.37 in Calm     75 % 0.00 in 0.0 W/m2 FEW
06:09 44.3 °F 37.2 °F 30.37 in Calm     76 % 0.00 in 0.0 W/m2 FEW
06:14 44.3 °F 37.2 °F 30.37 in Calm     76 % 0.00 in 0.0 W/m2 FEW
06:19 44.3 °F 37.2 °F 30.37 in Calm     76 % 0.00 in 0.0 W/m2 FEW
06:24 44.2 °F 37.1 °F 30.37 in Calm     76 % 0.00 in 0.0 W/m2 FEW
06:29 44.2 °F 37.1 °F 30.37 in Calm     76 % 0.00 in 5.0 W/m2 FEW
06:34 44.1 °F 37.3 °F 30.37 in Calm     77 % 0.00 in 9.0 W/m2 FEW
06:39 44.2 °F 37.4 °F 30.38 in Calm     77 % 0.00 in 12.0 W/m2 FEW
06:44 44.3 °F 37.5 °F 30.38 in Calm     77 % 0.00 in 14.0 W/m2 FEW
06:49 44.4 °F 37.6 °F 30.37 in Calm     77 % 0.00 in 18.0 W/m2 FEW
06:54 44.3 °F 37.9 °F 30.37 in Calm     78 % 0.00 in 21.0 W/m2 FEW
06:59 44.4 °F 38.0 °F 30.37 in Calm     78 % 0.00 in 26.0 W/m2 FEW
07:04 44.4 °F 38.3 °F 30.37 in Calm     79 % 0.00 in 35.0 W/m2 FEW
07:09 44.5 °F 38.7 °F 30.38 in Calm     80 % 0.00 in 40.0 W/m2 SCT
07:19 44.6 °F 38.8 °F 30.38 in Calm     80 % 0.00 in 58.0 W/m2 SCT
07:29 45.2 °F 39.4 °F 30.38 in Calm     80 % 0.00 in 62.0 W/m2 SCT
07:34 45.4 °F 39.3 °F 30.38 in Calm     79 % 0.00 in 69.0 W/m2 SCT
07:39 45.7 °F 39.6 °F 30.38 in Calm     79 % 0.00 in 79.0 W/m2 SCT
07:44 45.9 °F 39.4 °F 30.38 in Calm   1.2 mph 78 % 0.00 in 84.0 W/m2 SCT
07:45 45.9 °F 39.4 °F 30.38 in Calm     78 % 0.00 in 90.0 W/m2 SCT
07:50 46.2 °F 39.7 °F 30.38 in Calm     78 % 0.00 in 118.0 W/m2 FEW
07:55 46.7 °F 40.2 °F 30.38 in Calm     78 % 0.00 in 135.0 W/m2 FEW
08:00 47.2 °F 40.7 °F 30.38 in Calm     78 % 0.00 in 162.0 W/m2 FEW
08:05 47.7 °F 41.2 °F 30.38 in Calm     78 % 0.00 in 125.0 W/m2 SCT
08:10 47.8 °F 40.9 °F 30.38 in Calm     77 % 0.00 in 144.0 W/m2 SCT
08:15 48.1 °F 40.9 °F 30.38 in Calm     76 % 0.00 in 148.0 W/m2 SCT
08:20 48.4 °F 41.2 °F 30.38 in Calm     76 % 0.00 in 155.0 W/m2 SCT
08:25 48.4 °F 40.8 °F 30.37 in Calm     75 % 0.00 in 139.0 W/m2 SCT
08:30 48.7 °F 41.1 °F 30.37 in Calm     75 % 0.00 in 125.0 W/m2 BKN
08:35 48.9 °F 41.3 °F 30.37 in Calm     75 % 0.00 in 125.0 W/m2 BKN
08:40 49.4 °F 41.5 °F 30.37 in Calm     74 % 0.00 in 158.0 W/m2 BKN
08:45 49.7 °F 41.4 °F 30.37 in Calm     73 % 0.00 in 179.0 W/m2 SCT
08:50 50.0 °F 41.7 °F 30.37 in Calm     73 % 0.00 in 174.0 W/m2 SCT
08:55 50.2 °F 41.5 °F 30.37 in Calm     72 % 0.00 in 162.0 W/m2 BKN
09:00 50.4 °F 41.3 °F 30.37 in Calm     71 % 0.00 in 171.0 W/m2 BKN
09:05 50.6 °F 41.2 °F 30.36 in Calm     70 % 0.00 in 158.0 W/m2 BKN
09:10 51.0 °F 40.4 °F 30.36 in Calm     67 % 0.00 in 192.0 W/m2 BKN
09:16 51.3 °F 40.3 °F 30.36 in Calm     66 % 0.00 in 239.0 W/m2 SCT
09:21 51.9 °F 41.3 °F 30.36 in Calm     67 % 0.00 in 244.0 W/m2 SCT
09:26 52.1 °F 40.3 °F 30.35 in Calm     64 % 0.00 in 218.0 W/m2 BKN
09:31 52.5 °F 40.7 °F 30.35 in Calm     64 % 0.00 in 301.0 W/m2 SCT
09:36 52.9 °F 40.6 °F 30.36 in West 0.1 mph 1.2 mph 63 % 0.00 in 292.0 W/m2 SCT
09:41 53.7 °F 41.4 °F 30.36 in Calm     63 % 0.00 in 260.0 W/m2 SCT
09:46 54.1 °F 40.5 °F 30.36 in Calm     60 % 0.00 in 221.0 W/m2 BKN
09:51 54.3 °F 40.3 °F 30.36 in Calm     59 % 0.00 in 230.0 W/m2 BKN
09:56 54.6 °F 39.2 °F 30.36 in SW 0.3 mph 2.3 mph 56 % 0.00 in 227.0 W/m2 BKN
10:01 54.9 °F 39.5 °F 30.36 in Calm     56 % 0.00 in 220.0 W/m2 BKN
10:06 55.5 °F 39.6 °F 30.36 in WSW 0.1 mph 1.2 mph 55 % 0.00 in 183.0 W/m2 BKN
10:11 55.5 °F 39.6 °F 30.36 in SW 2.1 mph 3.5 mph 55 % 0.00 in 197.0 W/m2 BKN
10:16 55.5 °F 39.1 °F 30.36 in Calm     54 % 0.00 in 221.0 W/m2 BKN
10:21 55.7 °F 38.8 °F 30.36 in SW 0.1 mph 1.2 mph 53 % 0.00 in 207.0 W/m2 BKN
10:26 56.0 °F 38.6 °F 30.36 in Calm     52 % 0.00 in 229.0 W/m2 BKN
10:31 56.3 °F 38.4 °F 30.36 in SW 0.1 mph   51 % 0.00 in 220.0 W/m2 BKN
10:36 56.7 °F 38.8 °F 30.36 in Calm     51 % 0.00 in 225.0 W/m2 BKN
10:41 56.7 °F 38.3 °F 30.35 in SSW 1.0 mph 4.6 mph 50 % 0.00 in 221.0 W/m2 BKN
10:46 57.0 °F 38.0 °F 30.35 in SSW 2.1 mph 4.6 mph 49 % 0.00 in 251.0 W/m2 BKN
10:51 57.2 °F 39.2 °F 30.35 in South 0.7 mph 3.0 mph 51 % 0.00 in 255.0 W/m2 BKN
10:56 57.0 °F 38.5 °F 30.35 in Calm   2.3 mph 50 % 0.00 in 264.0 W/m2 BKN
11:01 56.9 °F 38.9 °F 30.34 in South 1.8 mph 4.6 mph 51 % 0.00 in 243.0 W/m2 BKN
11:06 57.0 °F 38.5 °F 30.34 in South 0.1 mph 3.5 mph 50 % 0.00 in 253.0 W/m2 BKN
11:11 57.6 °F 39.6 °F 30.34 in South 0.2 mph 3.0 mph 51 % 0.00 in 246.0 W/m2 BKN
11:16 57.8 °F 39.3 °F 30.34 in South 0.2 mph 3.5 mph 50 % 0.00 in 241.0 W/m2 BKN
11:21 57.7 °F 39.2 °F 30.34 in SSE 4.3 mph 5.8 mph 50 % 0.00 in 236.0 W/m2 BKN
11:26 57.8 °F 39.3 °F 30.34 in South 1.9 mph 5.8 mph 50 % 0.00 in 253.0 W/m2 BKN
11:31 57.9 °F 39.4 °F 30.34 in South 0.9 mph 3.5 mph 50 % 0.00 in 218.0 W/m2 BKN
11:36 58.0 °F 39.5 °F 30.33 in Calm     50 % 0.00 in 287.0 W/m2 BKN
11:41 58.3 °F 39.7 °F 30.33 in SSW 0.1 mph 3.5 mph 50 % 0.00 in 227.0 W/m2 OVC
11:46 58.8 °F 40.2 °F 30.33 in South 2.2 mph 3.0 mph 50 % 0.00 in 232.0 W/m2 BKN
11:51 58.6 °F 40.0 °F 30.32 in South 3.2 mph 5.8 mph 50 % 0.00 in 221.0 W/m2 OVC
11:56 58.8 °F 40.2 °F 30.32 in South 0.5 mph   50 % 0.00 in 209.0 W/m2 OVC
12:01 58.9 °F 40.3 °F 30.32 in South 1.9 mph 3.5 mph 50 % 0.00 in 181.0 W/m2 OVC
12:06 58.7 °F 40.1 °F 30.32 in Calm   4.6 mph 50 % 0.00 in 232.0 W/m2 BKN
12:11 59.0 °F 40.4 °F 30.32 in South 2.5 mph 8.1 mph 50 % 0.00 in 206.0 W/m2 BKN
12:16 59.2 °F 41.1 °F 30.31 in South 0.2 mph 3.5 mph 51 % 0.00 in 336.0 W/m2 BKN
12:21 59.2 °F 40.6 °F 30.31 in SSE 0.3 mph 4.6 mph 50 % 0.00 in 269.0 W/m2 BKN
12:27 59.4 °F 40.7 °F 30.31 in SSW 1.2 mph 5.0 mph 50 % 0.00 in 304.0 W/m2 BKN
12:28 59.6 °F 40.9 °F 30.31 in SSW 0.4 mph 4.6 mph 50 % 0.00 in 327.0 W/m2 BKN
12:33 59.9 °F 41.7 °F 30.31 in South 1.6 mph 5.0 mph 51 % 0.00 in 292.0 W/m2 BKN
12:38 59.8 °F 41.1 °F 30.31 in South 4.3 mph 6.9 mph 50 % 0.00 in 346.0 W/m2 BKN
12:43 59.6 °F 41.4 °F 30.30 in South 1.3 mph 5.0 mph 51 % 0.00 in 316.0 W/m2 BKN
12:48 60.0 °F 41.8 °F 30.30 in South 4.7 mph 6.9 mph 51 % 0.00 in 343.0 W/m2 BKN
12:53 60.2 °F 42.0 °F 30.29 in SSW 5.0 mph 9.2 mph 51 % 0.00 in 283.0 W/m2 BKN
12:58 60.0 °F 41.8 °F 30.29 in SSE 1.4 mph 3.5 mph 51 % 0.00 in 306.0 W/m2 BKN
13:03 60.5 °F 42.3 °F 30.29 in South 5.9 mph 8.1 mph 51 % 0.00 in 292.0 W/m2 BKN
13:08 60.6 °F 41.8 °F 30.29 in South 6.3 mph 11.5 mph 50 % 0.00 in 295.0 W/m2 BKN
13:13 60.6 °F 42.4 °F 30.28 in South 1.6 mph 3.5 mph 51 % 0.00 in 251.0 W/m2 BKN
13:18 60.8 °F 43.1 °F 30.28 in Calm   6.9 mph 52 % 0.00 in 218.0 W/m2 OVC
13:23 60.6 °F 42.9 °F 30.28 in SSE 1.2 mph 8.1 mph 52 % 0.00 in 190.0 W/m2 OVC
13:28 60.5 °F 42.8 °F 30.29 in South 5.3 mph 6.9 mph 52 % 0.00 in 174.0 W/m2 OVC
13:33 60.5 °F 42.8 °F 30.28 in South 5.3 mph 8.1 mph 52 % 0.00 in 195.0 W/m2 OVC
13:38 60.7 °F 43.0 °F 30.28 in South 5.5 mph 8.0 mph 52 % 0.00 in 213.0 W/m2 OVC
13:43 60.9 °F 43.6 °F 30.28 in South 4.6 mph 10.0 mph 53 % 0.00 in 213.0 W/m2 OVC
13:48 61.2 °F 43.4 °F 30.27 in South 4.4 mph 6.9 mph 52 % 0.00 in 309.0 W/m2 BKN
13:53 61.7 °F 43.9 °F 30.26 in SE 4.2 mph 8.1 mph 52 % 0.00 in 399.0 W/m2 SCT
13:58 61.8 °F 44.0 °F 30.26 in SSE 0.1 mph 4.6 mph 52 % 0.00 in 434.0 W/m2 SCT
14:03 62.3 °F 43.9 °F 30.26 in South 6.0 mph 11.5 mph 51 % 0.00 in 485.0 W/m2 SCT
14:08 62.2 °F 44.9 °F 30.26 in SSE 4.5 mph 11.5 mph 53 % 0.00 in 429.0 W/m2 SCT
14:13 62.3 °F 45.4 °F 30.25 in South 6.9 mph 11.5 mph 54 % 0.00 in 791.0 W/m2 SCT
14:18 62.9 °F 46.5 °F 30.25 in SSE 10.1 mph 12.7 mph 55 % 0.00 in 791.0 W/m2 CLR
14:23 63.0 °F 46.6 °F 30.24 in SSE 4.3 mph 10.4 mph 55 % 0.00 in 468.0 W/m2 SCT
14:28 62.8 °F 46.9 °F 30.24 in SSW 6.8 mph 11.5 mph 56 % 0.00 in 431.0 W/m2 SCT
14:33 62.7 °F 46.8 °F 30.24 in South 5.3 mph 11.5 mph 56 % 0.00 in 396.0 W/m2 SCT
14:38 63.0 °F 48.0 °F 30.23 in SSW 5.3 mph 5.3 mph 58 % 0.00 in 385.0 W/m2 SCT
14:43 63.4 °F 48.4 °F 30.23 in SE 1.8 mph 6.9 mph 58 % 0.00 in 380.0 W/m2 SCT
14:48 63.2 °F 49.1 °F 30.23 in South 6.8 mph 8.0 mph 60 % 0.00 in 417.0 W/m2 SCT
14:53 63.3 °F 49.6 °F 30.23 in South 5.5 mph 10.4 mph 61 % 0.00 in 413.0 W/m2 SCT
14:58 63.6 °F 49.9 °F 30.22 in SSW 6.3 mph 11.0 mph 61 % 0.00 in 410.0 W/m2 SCT
15:03 63.5 °F 49.4 °F 30.22 in SSW 5.3 mph 10.4 mph 60 % 0.00 in 399.0 W/m2 SCT
15:08 64.1 °F 49.0 °F 30.22 in SSE 4.9 mph 9.2 mph 58 % 0.00 in 301.0 W/m2 BKN
15:11 63.7 °F 49.1 °F 30.22 in South 1.6 mph 9.0 mph 59 % 0.00 in 274.0 W/m2 BKN
15:16 63.3 °F 48.7 °F 30.21 in SE 3.2 mph 8.1 mph 59 % 0.00 in 283.0 W/m2 BKN
15:21 63.5 °F 49.4 °F 30.21 in South 0.8 mph 3.5 mph 60 % 0.00 in 309.0 W/m2 BKN
15:26 63.5 °F 49.4 °F 30.21 in SSE 6.2 mph 8.1 mph 60 % 0.00 in 302.0 W/m2 BKN
15:31 63.8 °F 49.6 °F 30.20 in SSE 5.2 mph 8.1 mph 60 % 0.00 in 336.0 W/m2 SCT
15:36 63.7 °F 49.5 °F 30.20 in South 4.1 mph 10.0 mph 60 % 0.00 in 316.0 W/m2 SCT
15:41 63.5 °F 49.8 °F 30.19 in South 2.2 mph 6.9 mph 61 % 0.00 in 279.0 W/m2 BKN
15:46 63.8 °F 49.6 °F 30.19 in SSE 1.8 mph 8.1 mph 60 % 0.00 in 257.0 W/m2 BKN
15:51 63.8 °F 49.6 °F 30.19 in SSE 2.6 mph 10.4 mph 60 % 0.00 in 274.0 W/m2 BKN
15:56 63.9 °F 49.7 °F 30.18 in South 8.0 mph 10.4 mph 60 % 0.00 in 318.0 W/m2 SCT
16:01 64.0 °F 49.8 °F 30.18 in South 6.5 mph 11.5 mph 60 % 0.00 in 304.0 W/m2 SCT
16:06 64.0 °F 49.8 °F 30.19 in South 5.5 mph 6.9 mph 60 % 0.00 in 253.0 W/m2 BKN
16:11 64.0 °F 49.8 °F 30.18 in South 6.4 mph 9.0 mph 60 % 0.00 in 304.0 W/m2 SCT
16:16 64.2 °F 50.0 °F 30.18 in SE 3.2 mph 9.2 mph 60 % 0.00 in 309.0 W/m2 SCT
16:21 64.3 °F 50.1 °F 30.18 in South 1.7 mph 5.8 mph 60 % 0.00 in 287.0 W/m2 SCT
16:26 64.2 °F 50.0 °F 30.18 in South 3.8 mph 4.6 mph 60 % 0.00 in 269.0 W/m2 SCT
16:31 64.7 °F 50.5 °F 30.18 in SSE 3.2 mph 4.0 mph 60 % 0.00 in 285.0 W/m2 SCT
16:36 64.7 °F 50.5 °F 30.18 in SSE 1.7 mph 5.8 mph 60 % 0.00 in 269.0 W/m2 SCT
16:41 65.0 °F 50.3 °F 30.18 in Calm     59 % 0.00 in 251.0 W/m2 SCT
16:46 64.8 °F 50.6 °F 30.17 in South 5.1 mph 6.9 mph 60 % 0.00 in 260.0 W/m2 SCT
16:51 64.6 °F 50.4 °F 30.17 in SSE 4.0 mph 9.2 mph 60 % 0.00 in 274.0 W/m2 SCT
16:56 64.7 °F 50.9 °F 30.17 in South 0.4 mph 4.6 mph 61 % 0.00 in 234.0 W/m2 SCT
17:01 64.7 °F 50.5 °F 30.17 in South 3.7 mph 11.5 mph 60 % 0.00 in 213.0 W/m2 SCT
17:06 64.6 °F 50.8 °F 30.17 in South 0.6 mph 4.6 mph 61 % 0.00 in 209.0 W/m2 SCT
17:11 64.7 °F 50.9 °F 30.17 in SSE 5.2 mph 9.2 mph 61 % 0.00 in 229.0 W/m2 SCT
17:16 64.5 °F 50.7 °F 30.17 in South 3.2 mph 6.9 mph 61 % 0.00 in 204.0 W/m2 SCT
17:21 64.6 °F 51.3 °F 30.17 in SSE 0.4 mph 3.5 mph 62 % 0.00 in 193.0 W/m2 SCT
17:31 64.9 °F 51.1 °F 30.17 in SSW 5.8 mph 6.9 mph 61 % 0.00 in 130.0 W/m2 BKN
17:36 64.5 °F 50.7 °F 30.17 in SSW 4.1 mph 8.1 mph 61 % 0.00 in 118.0 W/m2 BKN
17:41 64.4 °F 51.1 °F 30.17 in South 1.0 mph 6.9 mph 62 % 0.00 in 62.0 W/m2 OVC
17:46 64.1 °F 51.2 °F 30.17 in South 4.2 mph 4.2 mph 63 % 0.00 in 79.0 W/m2 OVC
17:51 64.2 °F 51.3 °F 30.17 in SSW 2.5 mph 3.5 mph 63 % 0.00 in 172.0 W/m2 SCT
17:56 64.3 °F 51.4 °F 30.17 in South 0.9 mph   63 % 0.00 in 130.0 W/m2 SCT
18:01 64.6 °F 51.3 °F 30.17 in SSW 1.1 mph 5.0 mph 62 % 0.00 in 84.0 W/m2 BKN
18:06 64.6 °F 51.3 °F 30.17 in SSW 0.5 mph 3.5 mph 62 % 0.00 in 118.0 W/m2 BKN
18:11 64.6 °F 51.7 °F 30.17 in Calm     63 % 0.00 in 209.0 W/m2 CLR
18:16 64.7 °F 51.4 °F 30.17 in South 0.6 mph 2.3 mph 62 % 0.00 in 125.0 W/m2 SCT
18:21 64.5 °F 51.2 °F 30.17 in South 4.0 mph 4.0 mph 62 % 0.00 in 65.0 W/m2 BKN
18:26 64.4 °F 51.5 °F 30.17 in South 1.0 mph 3.5 mph 63 % 0.00 in 62.0 W/m2 BKN
18:31 64.4 °F 51.5 °F 30.17 in South 4.7 mph 5.8 mph 63 % 0.00 in 62.0 W/m2 BKN
18:36 64.4 °F 51.5 °F 30.16 in South 0.1 mph 5.8 mph 63 % 0.00 in 60.0 W/m2 BKN
18:41 64.2 °F 51.8 °F 30.16 in Calm     64 % 0.00 in 53.0 W/m2 BKN
18:47 64.3 °F 51.4 °F 30.16 in South 0.9 mph 1.2 mph 63 % 0.00 in 47.0 W/m2 BKN
18:52 64.3 °F 51.9 °F 30.16 in South 1.3 mph 4.0 mph 64 % 0.00 in 44.0 W/m2 BKN
18:57 64.1 °F 51.7 °F 30.16 in Calm     64 % 0.00 in 37.0 W/m2 BKN
19:01 63.9 °F 51.5 °F 30.15 in Calm     64 % 0.00 in 37.0 W/m2 BKN
19:07 63.9 °F 51.9 °F 30.16 in Calm     65 % 0.00 in 39.0 W/m2 SCT
19:12 63.8 °F 51.8 °F 30.16 in Calm     65 % 0.00 in 28.0 W/m2 BKN
19:17 63.7 °F 51.7 °F 30.16 in Calm     65 % 0.00 in 26.0 W/m2 SCT
19:22 63.6 °F 51.6 °F 30.16 in Calm     65 % 0.00 in 16.0 W/m2 BKN
19:27 63.6 °F 52.0 °F 30.16 in Calm     66 % 0.00 in 9.0 W/m2 BKN
19:32 63.6 °F 52.0 °F 30.16 in Calm     66 % 0.00 in 7.0 W/m2 BKN
19:37 63.4 °F 51.8 °F 30.15 in South 0.1 mph 2.0 mph 66 % 0.00 in 5.0 W/m2 BKN
19:42 63.3 °F 51.7 °F 30.15 in Calm     66 % 0.00 in 0.0 W/m2 BKN
19:47 63.1 °F 52.0 °F 30.15 in South 1.9 mph 3.5 mph 67 % 0.00 in 0.0 W/m2 BKN
19:52 63.0 °F 51.9 °F 30.14 in South 0.1 mph 3.0 mph 67 % 0.00 in 0.0 W/m2 BKN
19:57 62.9 °F 52.2 °F 30.15 in Calm   2.3 mph 68 % 0.00 in 0.0 W/m2 BKN
20:02 62.9 °F 52.2 °F 30.14 in Calm   2.3 mph 68 % 0.00 in 0.0 W/m2 BKN
20:07 62.9 °F 52.2 °F 30.15 in South 1.6 mph 3.5 mph 68 % 0.00 in 0.0 W/m2 BKN
20:12 62.8 °F 52.1 °F 30.15 in Calm     68 % 0.00 in 0.0 W/m2 BKN
20:17 62.7 °F 52.0 °F 30.15 in South 0.1 mph 1.2 mph 68 % 0.00 in 0.0 W/m2 BKN
20:22 62.7 °F 52.0 °F 30.16 in Calm     68 % 0.00 in 0.0 W/m2 BKN
20:27 62.4 °F 52.1 °F 30.15 in Calm     69 % 0.00 in 0.0 W/m2 BKN
20:32 62.2 °F 51.9 °F 30.15 in South 0.1 mph 1.0 mph 69 % 0.00 in 0.0 W/m2 BKN
20:37 61.9 °F 51.6 °F 30.15 in Calm     69 % 0.00 in 0.0 W/m2 BKN
20:42 61.7 °F 51.8 °F 30.15 in South 0.4 mph 2.0 mph 70 % 0.00 in 0.0 W/m2 BKN
20:47 61.7 °F 51.8 °F 30.15 in Calm   2.3 mph 70 % 0.00 in 0.0 W/m2 BKN
20:52 61.7 °F 51.8 °F 30.15 in Calm     70 % 0.00 in 0.0 W/m2 BKN
20:57 61.7 °F 52.2 °F 30.16 in Calm   2.3 mph 71 % 0.00 in 0.0 W/m2 BKN
21:02 61.6 °F 52.1 °F 30.16 in Calm     71 % 0.00 in 0.0 W/m2 BKN
21:07 61.4 °F 51.9 °F 30.15 in Calm     71 % 0.00 in 0.0 W/m2 BKN
21:12 61.5 °F 52.0 °F 30.15 in Calm     71 % 0.00 in 0.0 W/m2 BKN
21:17 61.4 °F 51.9 °F 30.15 in Calm     71 % 0.00 in 0.0 W/m2 BKN
21:22 61.5 °F 52.4 °F 30.15 in Calm     72 % 0.00 in 0.0 W/m2 BKN
21:27 61.6 °F 52.1 °F 30.15 in Calm     71 % 0.00 in 0.0 W/m2 BKN
21:32 61.8 °F 52.7 °F 30.16 in SSW 0.9 mph 1.0 mph 72 % 0.00 in 0.0 W/m2 BKN
21:37 61.8 °F 52.7 °F 30.16 in Calm     72 % 0.00 in 0.0 W/m2 BKN
21:42 61.8 °F 52.7 °F 30.15 in Calm     72 % 0.00 in 0.0 W/m2 BKN
21:47 61.8 °F 52.7 °F 30.15 in Calm     72 % 0.00 in 0.0 W/m2 BKN
21:52 61.7 °F 52.6 °F 30.14 in Calm     72 % 0.00 in 0.0 W/m2 BKN
21:57 61.4 °F 52.3 °F 30.14 in Calm     72 % 0.00 in 0.0 W/m2 BKN
22:02 61.3 °F 52.6 °F 30.14 in Calm     73 % 0.00 in 0.0 W/m2 BKN
22:07 61.2 °F 52.5 °F 30.14 in Calm     73 % 0.00 in 0.0 W/m2 BKN
22:12 60.9 °F 52.2 °F 30.14 in SSW 0.6 mph 2.0 mph 73 % 0.00 in 0.0 W/m2 BKN
22:17 60.7 °F 52.4 °F 30.14 in Calm   3.5 mph 74 % 0.00 in 0.0 W/m2 BKN
22:22 60.6 °F 52.6 °F 30.13 in Calm     75 % 0.00 in 0.0 W/m2 BKN
22:27 60.5 °F 52.5 °F 30.13 in SSW 0.5 mph 3.5 mph 75 % 0.00 in 0.0 W/m2 BKN
22:32 60.6 °F 52.6 °F 30.13 in Calm     75 % 0.00 in 0.0 W/m2 BKN
22:37 60.8 °F 53.2 °F 30.13 in Calm     76 % 0.00 in 0.0 W/m2 BKN
22:42 60.9 °F 53.3 °F 30.13 in Calm     76 % 0.00 in 0.0 W/m2 BKN
22:47 60.9 °F 52.9 °F 30.13 in Calm     75 % 0.00 in 0.0 W/m2 BKN
22:52 60.4 °F 52.8 °F 30.12 in Calm     76 % 0.00 in 0.0 W/m2 BKN
22:57 60.0 °F 52.4 °F 30.12 in Calm     76 % 0.00 in 0.0 W/m2 BKN
23:02 59.8 °F 52.9 °F 30.12 in Calm     78 % 0.00 in 0.0 W/m2 BKN
23:07 59.8 °F 52.9 °F 30.12 in Calm     78 % 0.00 in 0.0 W/m2 BKN
23:12 59.7 °F 52.8 °F 30.12 in Calm     78 % 0.00 in 0.0 W/m2 BKN
23:17 59.6 °F 52.7 °F 30.11 in Calm     78 % 0.00 in 0.0 W/m2 BKN
23:22 59.6 °F 52.7 °F 30.11 in Calm     78 % 0.00 in 0.0 W/m2 BKN
23:27 59.7 °F 52.8 °F 30.11 in Calm     78 % 0.00 in 0.0 W/m2 BKN
23:32 59.4 °F 52.5 °F 30.11 in Calm     78 % 0.00 in 0.0 W/m2 BKN
23:37 58.7 °F 52.2 °F 30.10 in Calm     79 % 0.00 in 0.0 W/m2 BKN
23:42 58.3 °F 51.8 °F 30.10 in Calm     79 % 0.00 in 0.0 W/m2 BKN
23:47 58.1 °F 52.0 °F 30.10 in Calm     80 % 0.00 in 0.0 W/m2 BKN
23:52 58.2 °F 52.1 °F 30.10 in Calm     80 % 0.00 in 0.0 W/m2 BKN
Air Products Campus Weather
Compliments of Weather Underground - 3.25 mb